WetterOnline ( http://www.wetteronline.de )

Wetter aktuell Mannheim

Aktuelles Wetter: Mannheim (100m)

6-stündlich | Neueste Meldungen
Ortszeit Temperatur Wetter
So, 21.01. 13:00 4.8° C bedeckt
So, 21.01. 7:00 2.7° C bewölkt
So, 21.01. 1:00 1.9° C Sprühregen
Sa, 20.01. 19:00 2.5° C leichter Regen
Sa, 20.01. 13:00 4.0° C leichter Regen
Sa, 20.01. 7:00 2.4° C leichter Regen
Sa, 20.01. 1:00 1.9° C wolkig
Fr, 19.01. 19:00 3.6° C bewölkt
Ortszeit Temperatur Wetter
So, 21.01. 13:00 4.8° C bedeckt
So, 21.01. 12:50 4.8° C bedeckt
So, 21.01. 12:40 4.8° C bedeckt
So, 21.01. 12:30 4.7° C bewölkt
So, 21.01. 12:20 4.7° C bewölkt
So, 21.01. 12:10 4.9° C bewölkt
So, 21.01. 12:00 4.5° C wolkig
So, 21.01. 11:30 4.8° C fast wolkenlos
So, 21.01. 11:00 4.4° C wolkenlos
So, 21.01. 10:30 3.7° C wolkig
So, 21.01. 10:00 3.7° C bewölkt
Ortszeit Relative Feuchte Sichtweite
So, 21.01. 13:00 69% 70 km
So, 21.01. 7:00 90% 40 km
So, 21.01. 1:00 99% 6 km
Sa, 20.01. 19:00 99% 7 km
Sa, 20.01. 13:00 95% 10 km
Sa, 20.01. 7:00 99% 27 km
Sa, 20.01. 1:00 96% 20 km
Fr, 19.01. 19:00 96% 26 km
Ortszeit Relative Feuchte Sichtweite
So, 21.01. 13:00 69% 70 km
So, 21.01. 12:50 69% -
So, 21.01. 12:40 68% -
So, 21.01. 12:30 70% 70 km
So, 21.01. 12:20 70% -
So, 21.01. 12:10 70% -
So, 21.01. 12:00 73% 50 km
So, 21.01. 11:30 73% 35 km
So, 21.01. 11:00 77% 28 km
So, 21.01. 10:30 80% 24 km
So, 21.01. 10:00 82% 30 km
Ortszeit Niederschlagsmenge Niederschlagsart
So, 21.01. 13:00 0.1 l/m2 in 6 Std. Regen
So, 21.01. 7:00 1 l/m2 in 12 Std. Regen
So, 21.01. 1:00 1 l/m2 in 6 Std. Schnee, Regen
Sa, 20.01. 19:00 8 l/m2 in 12 Std. Regen
Sa, 20.01. 13:00 0.2 l/m2 in 6 Std. Regen
Sa, 20.01. 7:00 0.7 l/m2 in 12 Std. Regen
Sa, 20.01. 1:00 0.0 l/m2 in 6 Std. -
Fr, 19.01. 19:00 0.9 l/m2 in 12 Std. Regen
Ortszeit Niederschlagsmenge Niederschlagsart
So, 21.01. 13:00 0.0 l/m2 in 1 Std. Regen
So, 21.01. 12:50 keine Meldung -
So, 21.01. 12:40 keine Meldung -
So, 21.01. 12:30 0.0 l/m2 in 1 Std. -
So, 21.01. 12:20 keine Meldung -
So, 21.01. 12:10 keine Meldung -
So, 21.01. 12:00 0.0 l/m2 in 1 Std. -
So, 21.01. 11:30 0.0 l/m2 in 1 Std. -
So, 21.01. 11:00 0.0 l/m2 in 1 Std. -
So, 21.01. 10:30 0.0 l/m2 in 1 Std. -
So, 21.01. 10:00 0.0 l/m2 in 1 Std. Regen
Ortszeit Stärke Spitze Richtung
km/h Bft. km/h Grad Sektor
So, 21.01. 13:00 13 3 30 290° W
So, 21.01. 7:00 7 2 24 300° NW
So, 21.01. 1:00 7 2 14 300° NW
Sa, 20.01. 19:00 7 2 29 180° S
Sa, 20.01. 13:00 15 3 31 170° S
Sa, 20.01. 7:00 7 2 29 190° S
Sa, 20.01. 1:00 14 3 18 150° SO
Fr, 19.01. 19:00 11 2 41 170° S
Ortszeit Stärke Spitze Richtung
km/h Bft. km/h Grad Sektor
So, 21.01. 13:00 13 3 30 290° W
So, 21.01. 12:50 13 3 - 290° W
So, 21.01. 12:40 17 3 - 280° W
So, 21.01. 12:30 14 3 25 280° W
So, 21.01. 12:20 14 3 - 280° W
So, 21.01. 12:10 17 3 - 270° W
So, 21.01. 12:00 15 3 26 280° W
So, 21.01. 11:30 11 2 25 280° W
So, 21.01. 11:00 13 3 20 280° W
So, 21.01. 10:30 13 3 19 280° W
So, 21.01. 10:00 11 2 20 300° NW
Ortszeit Untergrenze Bedeckung Gattung
total tief tief mittel hoch
So, 21.01. 13:00 870 m 8/8 8/8 - - -
So, 21.01. 7:00 750 m 7/8 7/8 - - -
So, 21.01. 1:00 120 m 8/8 8/8 - - -
Sa, 20.01. 19:00 390 m 8/8 8/8 - - -
Sa, 20.01. 13:00 330 m 7/8 7/8 - - -
Sa, 20.01. 7:00 660 m 8/8 8/8 - - -
Sa, 20.01. 1:00 870 m 7/8 5/8 - - -
Fr, 19.01. 19:00 1020 m 8/8 7/8 - - -
Ortszeit Bedeckungsgrad in Achtel und Wolkenuntergrenze
So, 21.01. 13:00 2(870m) 7(1140m) 8(1350m)
So, 21.01. 12:50 2(870m) 7(1140m) 8(1350m)
So, 21.01. 12:40 1(840m) 7(1140m) 8(1350m)
So, 21.01. 12:30 5(810m) 7(1080m) 7(1260m)
So, 21.01. 12:20 5(810m) 7(1080m)
So, 21.01. 12:10 5(780m) 7(960m) 7(1140m)
So, 21.01. 12:00 4(720m) 5(840m) 6(1050m)
So, 21.01. 11:30 3(660m)
So, 21.01. 11:00 keine Wolken
So, 21.01. 10:30 1(720m) 4(990m) 5(1290m)
So, 21.01. 10:00 1(870m) 7(1260m) 7(1500m)
Ortszeit Luftdruck NN (hPa) Tendenz (hPa in 3 Std.)
So, 21.01. 13:00 1018 + 2,4
So, 21.01. 7:00 1011 + 3,9
So, 21.01. 1:00 1003 + 2,5
Sa, 20.01. 19:00 1000 - 2,2
Sa, 20.01. 13:00 1007 - 3,5
Sa, 20.01. 7:00 1012 - 0,8
Sa, 20.01. 1:00 1014 + 0,4
Fr, 19.01. 19:00 1012 0,0
Ortszeit Luftdruck NN (hPa) Tendenz (hPa in 3 Std.)
So, 21.01. 13:00 1018 + 2,4
So, 21.01. 12:50 1018 keine Meldung
So, 21.01. 12:40 1018 keine Meldung
So, 21.01. 12:30 1018 + 2,6
So, 21.01. 12:20 1018 keine Meldung
So, 21.01. 12:10 1018 keine Meldung
So, 21.01. 12:00 1018 + 3,2
So, 21.01. 11:30 1017 + 3,4
So, 21.01. 11:00 1017 + 4,0
So, 21.01. 10:30 1016 + 4,0
So, 21.01. 10:00 1016 + 4,2
Ortszeit Schneehöhe (cm)
So, 21.01. 13:00 0
So, 21.01. 7:00 0
So, 21.01. 1:00 0
Sa, 20.01. 19:00 0
Sa, 20.01. 13:00 0
Sa, 20.01. 7:00 0
Sa, 20.01. 1:00 0
Fr, 19.01. 19:00 0
Ortszeit Schneehöhe (cm)
So, 21.01. 13:00 0
So, 21.01. 12:50 0
So, 21.01. 12:40 0
So, 21.01. 12:30 0
So, 21.01. 12:20 0
So, 21.01. 12:10 0
So, 21.01. 12:00 0
So, 21.01. 11:30 0
So, 21.01. 11:00 0
So, 21.01. 10:30 0
So, 21.01. 10:00 0
Link zu dieser Seite / Seite empfehlen

Das Wetter in ...